Time;durP1;ratioP1;P1;durP2;ratioP2;P2;SDS_P1;SDS_P2;PMS_P1;PMS_P2;Temp;Humidity;BMP_temperature;BMP_pressure;BME280_temperature;BME280_humidity;BME280_pressure;Samples;Min_cycle;Max_cycle;Signal;HPM_P1;HPM_P2
2022/07/13 00:00:42;;;;;;;2.10;1.90;;;19.70;99.90;;;;;;5039692;28;20204;-64
2022/07/13 00:03:08;;;;;;;2.03;1.77;;;19.70;99.90;;;;;;5027063;28;20204;-64
2022/07/13 00:05:35;;;;;;;2.13;1.75;;;19.80;99.90;;;;;;5028458;28;20599;-64
2022/07/13 00:08:04;;;;;;;4.60;1.75;;;19.70;99.90;;;;;;5029537;28;20204;-64
2022/07/13 00:10:30;;;;;;;2.80;1.90;;;19.80;99.90;;;;;;5046647;28;20235;-64
2022/07/13 00:12:57;;;;;;;2.60;1.50;;;19.50;99.90;;;;;;5015320;28;20241;-64
2022/07/13 00:15:24;;;;;;;5.40;1.73;;;19.70;99.90;;;;;;5044453;28;20208;-64
2022/07/13 00:17:51;;;;;;;5.15;1.90;;;19.60;99.90;;;;;;5032093;28;20223;-65
2022/07/13 00:20:18;;;;;;;2.67;1.77;;;19.60;99.90;;;;;;5045638;28;20201;-64
2022/07/13 00:22:45;;;;;;;4.22;1.80;;;19.60;99.90;;;;;;5015337;28;20204;-64
2022/07/13 00:25:13;;;;;;;7.22;2.28;;;19.80;99.90;;;;;;5041694;28;20197;-64
2022/07/13 00:27:40;;;;;;;2.10;1.70;;;19.60;99.90;;;;;;5029886;28;20208;-66
2022/07/13 00:30:08;;;;;;;3.95;1.80;;;19.70;99.90;;;;;;5015258;28;20206;-64
2022/07/13 00:32:36;;;;;;;3.08;1.88;;;19.70;99.90;;;;;;5037151;28;20259;-65
2022/07/13 00:35:03;;;;;;;2.47;1.70;;;19.60;99.90;;;;;;5044210;28;20717;-65
2022/07/13 00:37:30;;;;;;;3.13;1.90;;;19.70;99.90;;;;;;5028288;28;20215;-65
2022/07/13 00:39:57;;;;;;;3.72;1.90;;;19.70;99.90;;;;;;5041153;28;20915;-64
2022/07/13 00:42:25;;;;;;;3.17;1.70;;;19.70;99.90;;;;;;5042361;28;20205;-63
2022/07/13 00:44:52;;;;;;;4.43;1.98;;;19.10;99.90;;;;;;5004182;28;20901;-64
2022/07/13 00:47:19;;;;;;;5.53;2.00;;;19.70;99.90;;;;;;5045484;28;21095;-65
2022/07/13 00:49:46;;;;;;;3.15;1.90;;;20.40;99.90;;;;;;5033303;28;20219;-65
2022/07/13 00:52:13;;;;;;;2.38;2.00;;;19.80;99.90;;;;;;5035016;28;20720;-65
2022/07/13 00:54:43;;;;;;;3.30;1.90;;;19.80;99.90;;;;;;5044824;28;20193;-64
2022/07/13 00:57:14;;;;;;;4.00;2.35;;;19.80;99.90;;;;;;5042865;28;20220;-64
2022/07/13 00:59:43;;;;;;;3.05;2.17;;;20.80;99.90;;;;;;5016497;28;20213;-66
2022/07/13 01:02:10;;;;;;;2.60;2.35;;;19.80;99.90;;;;;;5045576;28;20599;-64
2022/07/13 01:04:37;;;;;;;4.15;2.90;;;;;;;;;;5042763;28;20203;-65
2022/07/13 01:07:04;;;;;;;4.22;2.33;;;19.90;99.90;;;;;;5043281;28;20708;-64
2022/07/13 01:09:32;;;;;;;3.70;2.33;;;19.80;99.90;;;;;;5044581;28;20233;-65
2022/07/13 01:11:59;;;;;;;2.25;2.05;;;19.80;99.90;;;;;;5048891;28;20737;-65
2022/07/13 01:14:26;;;;;;;2.15;2.05;;;19.70;99.90;;;;;;5036666;28;20620;-63
2022/07/13 01:16:55;;;;;;;3.10;1.98;;;19.80;99.90;;;;;;5022435;28;20209;-64
2022/07/13 01:19:23;;;;;;;2.35;2.15;;;19.50;99.90;;;;;;5033679;28;20214;-65
2022/07/13 01:21:56;;;;;;;2.45;2.13;;;19.70;99.90;;;;;;5040981;28;20231;-65
2022/07/13 01:24:24;;;;;;;4.22;2.03;;;19.70;99.90;;;;;;5038170;28;20208;-64
2022/07/13 01:26:52;;;;;;;2.53;1.75;;;20.50;99.90;;;;;;5048375;28;20201;-65
2022/07/13 01:29:18;;;;;;;3.67;1.90;;;19.60;99.90;;;;;;5043771;28;20205;-64
2022/07/13 01:31:45;;;;;;;8.32;2.00;;;19.70;99.90;;;;;;5015297;28;20209;-65
2022/07/13 01:34:12;;;;;;;2.63;2.05;;;19.90;99.90;;;;;;5048027;28;20234;-65
2022/07/13 01:36:41;;;;;;;3.97;2.13;;;19.20;99.90;;;;;;5036649;28;20216;-64
2022/07/13 01:39:09;;;;;;;2.55;2.00;;;19.70;99.90;;;;;;5047390;28;20283;-64
2022/07/13 01:41:37;;;;;;;5.50;2.33;;;19.70;99.90;;;;;;5034928;28;20270;-65
2022/07/13 01:44:04;;;;;;;2.30;2.10;;;19.70;99.90;;;;;;5049129;28;20197;-65
2022/07/13 01:46:31;;;;;;;6.00;2.80;;;21.60;99.90;;;;;;5007620;28;20204;-63
2022/07/13 01:48:58;;;;;;;2.83;2.22;;;19.70;99.90;;;;;;5047108;28;21776;-65
2022/07/13 01:51:25;;;;;;;2.50;2.30;;;19.70;99.90;;;;;;5038352;28;20209;-65
2022/07/13 01:53:52;;;;;;;2.78;2.58;;;19.90;99.90;;;;;;5029172;28;20221;-65
2022/07/13 01:56:19;;;;;;;3.63;2.40;;;19.70;99.90;;;;;;5047141;28;20580;-65
2022/07/13 01:58:47;;;;;;;6.57;2.30;;;19.40;99.90;;;;;;5029424;28;20201;-65
2022/07/13 02:01:14;;;;;;;2.83;2.50;;;19.60;99.90;;;;;;5032285;28;20212;-65
2022/07/13 02:03:41;;;;;;;8.27;2.28;;;19.60;99.90;;;;;;5013483;28;20209;-65
2022/07/13 02:06:07;;;;;;;3.20;2.50;;;19.30;99.90;;;;;;5045369;28;20212;-65
2022/07/13 02:08:34;;;;;;;7.35;2.40;;;19.50;99.90;;;;;;5037638;28;20238;-64
2022/07/13 02:11:01;;;;;;;2.80;2.55;;;19.40;99.90;;;;;;5045716;28;20207;-65
2022/07/13 02:13:28;;;;;;;3.20;2.47;;;19.60;99.90;;;;;;5047133;28;20220;-64
2022/07/13 02:15:57;;;;;;;3.17;2.88;;;19.60;99.90;;;;;;5035500;28;20227;-64
2022/07/13 02:18:25;;;;;;;2.95;2.60;;;19.60;99.90;;;;;;5010332;28;21292;-64
2022/07/13 02:20:52;;;;;;;6.25;2.65;;;19.50;99.90;;;;;;5032784;28;20193;-65
2022/07/13 02:23:19;;;;;;;3.22;2.90;;;19.40;99.90;;;;;;5036252;28;20201;-63
2022/07/13 02:25:46;;;;;;;4.25;2.30;;;19.50;99.90;;;;;;5044138;28;20192;-65
2022/07/13 02:28:12;;;;;;;8.35;2.92;;;19.60;99.90;;;;;;5040915;28;20660;-64
2022/07/13 02:30:39;;;;;;;5.03;2.47;;;19.40;99.90;;;;;;5038668;28;20204;-64
2022/07/13 02:33:07;;;;;;;4.35;2.75;;;16.30;99.90;;;;;;5005148;28;20579;-64
2022/07/13 02:35:34;;;;;;;3.75;2.72;;;19.50;99.90;;;;;;5021672;28;20221;-64
2022/07/13 02:38:01;;;;;;;8.05;3.17;;;19.60;99.90;;;;;;5032739;28;20210;-65
2022/07/13 02:40:28;;;;;;;2.35;2.15;;;19.50;99.90;;;;;;5034842;28;20208;-65
2022/07/13 02:42:55;;;;;;;3.35;2.72;;;19.40;99.90;;;;;;5036416;28;20196;-65
2022/07/13 02:45:22;;;;;;;3.22;2.58;;;19.70;99.90;;;;;;5037654;28;20197;-64
2022/07/13 02:47:49;;;;;;;2.70;2.50;;;19.40;99.90;;;;;;5028406;28;20205;-66
2022/07/13 02:50:18;;;;;;;3.28;2.33;;;20.40;99.90;;;;;;5014760;28;20205;-65
2022/07/13 02:52:44;;;;;;;2.83;2.55;;;19.40;99.90;;;;;;5036539;28;20229;-63
2022/07/13 02:55:11;;;;;;;4.25;2.75;;;20.60;99.90;;;;;;5016299;28;20226;-64
2022/07/13 02:57:38;;;;;;;3.63;2.50;;;19.30;99.90;;;;;;5046562;28;20961;-64
2022/07/13 03:00:07;;;;;;;3.35;2.55;;;19.30;99.90;;;;;;5028014;28;20205;-65
2022/07/13 03:02:33;;;;;;;4.65;2.88;;;19.30;99.90;;;;;;5032550;28;20212;-64
2022/07/13 03:05:00;;;;;;;5.35;3.38;;;19.30;99.90;;;;;;5005929;28;20204;-64
2022/07/13 03:07:29;;;;;;;3.65;2.55;;;19.30;99.90;;;;;;5027808;28;20229;-64
2022/07/13 03:09:56;;;;;;;2.92;2.72;;;19.60;99.90;;;;;;5029096;28;20216;-64
2022/07/13 03:12:23;;;;;;;5.63;2.72;;;19.30;99.90;;;;;;5014071;28;20216;-63
2022/07/13 03:14:50;;;;;;;5.38;2.75;;;19.30;99.90;;;;;;5044125;28;20209;-65
2022/07/13 03:17:17;;;;;;;4.57;2.55;;;19.50;99.90;;;;;;5040186;28;20197;-65
2022/07/13 03:19:44;;;;;;;4.00;2.63;;;19.00;99.90;;;;;;5044204;28;20213;-64
2022/07/13 03:22:11;;;;;;;4.95;2.55;;;;;;;;;;5001928;28;20634;-64
2022/07/13 03:24:39;;;;;;;3.13;2.80;;;19.30;99.90;;;;;;5041304;28;20239;-64
2022/07/13 03:27:06;;;;;;;4.15;2.83;;;19.20;99.90;;;;;;5031109;28;20196;-64
2022/07/13 03:29:33;;;;;;;5.28;3.08;;;19.30;99.90;;;;;;5048234;28;20209;-64
2022/07/13 03:32:00;;;;;;;2.78;2.58;;;19.40;99.90;;;;;;5044987;28;20211;-64
2022/07/13 03:34:27;;;;;;;6.13;2.78;;;20.20;99.90;;;;;;5032955;28;20610;-65
2022/07/13 03:36:54;;;;;;;2.90;2.55;;;19.30;99.90;;;;;;5007709;28;20221;-64
2022/07/13 03:39:21;;;;;;;5.20;3.00;;;18.50;99.90;;;;;;5033381;28;20211;-64
2022/07/13 03:41:49;;;;;;;3.67;2.80;;;19.50;99.90;;;;;;5029587;28;20205;-64
2022/07/13 03:44:16;;;;;;;3.15;2.80;;;19.30;99.90;;;;;;5034474;28;20205;-64
2022/07/13 03:46:43;;;;;;;3.50;2.90;;;;;;;;;;5038061;28;20197;-64
2022/07/13 03:49:10;;;;;;;2.83;2.60;;;19.30;99.90;;;;;;5034266;28;20224;-63
2022/07/13 03:51:38;;;;;;;3.00;2.70;;;19.00;99.90;;;;;;5020270;28;20236;-64
2022/07/13 03:54:05;;;;;;;2.80;2.60;;;;;;;;;;5045921;28;20253;-65
2022/07/13 03:56:32;;;;;;;3.50;3.20;;;19.20;99.90;;;;;;5032677;28;20292;-63
2022/07/13 03:59:00;;;;;;;3.75;2.85;;;19.50;99.90;;;;;;5046359;28;20200;-64
2022/07/13 04:01:27;;;;;;;3.40;3.08;;;;;;;;;;5013013;28;20216;-64
2022/07/13 04:03:54;;;;;;;3.03;2.70;;;19.50;99.90;;;;;;5038446;28;20517;-64
2022/07/13 04:06:21;;;;;;;3.10;2.78;;;19.40;99.90;;;;;;4995440;28;20200;-64
2022/07/13 04:08:48;;;;;;;3.22;2.47;;;;;;;;;;5027633;28;20225;-64
2022/07/13 04:11:15;;;;;;;5.85;3.08;;;19.40;99.90;;;;;;5041690;28;20201;-64
2022/07/13 04:13:42;;;;;;;3.08;2.60;;;19.40;99.90;;;;;;5017955;28;20228;-64
2022/07/13 04:16:11;;;;;;;3.17;2.70;;;19.50;99.90;;;;;;5036031;28;21223;-64
2022/07/13 04:18:39;;;;;;;10.00;2.83;;;;;;;;;;5029004;28;20295;-62
2022/07/13 04:21:07;;;;;;;6.10;3.00;;;19.20;99.90;;;;;;5031699;28;20228;-63
2022/07/13 04:23:34;;;;;;;3.38;3.03;;;19.40;99.90;;;;;;5016295;28;20209;-64
2022/07/13 04:26:01;;;;;;;3.45;2.90;;;19.40;99.90;;;;;;5047424;28;20215;-64
2022/07/13 04:28:27;;;;;;;4.13;2.75;;;19.40;99.90;;;;;;5034572;28;20305;-64
2022/07/13 04:30:54;;;;;;;3.85;3.25;;;19.70;99.90;;;;;;5048954;28;20197;-64
2022/07/13 04:33:23;;;;;;;5.47;3.03;;;19.50;99.90;;;;;;5046523;28;20226;-64
2022/07/13 04:35:49;;;;;;;6.65;3.20;;;19.30;99.90;;;;;;5029708;28;20217;-64
2022/07/13 04:38:16;;;;;;;3.45;3.00;;;19.50;99.90;;;;;;4997303;28;20224;-65
2022/07/13 04:40:43;;;;;;;3.67;3.38;;;19.60;99.90;;;;;;5033468;28;20208;-65
2022/07/13 04:43:10;;;;;;;5.20;3.42;;;19.20;99.90;;;;;;5032251;28;20205;-63
2022/07/13 04:45:37;;;;;;;4.57;3.25;;;19.60;99.90;;;;;;5030363;28;20227;-65
2022/07/13 04:48:05;;;;;;;8.07;3.47;;;19.60;99.90;;;;;;5032444;28;20203;-63
2022/07/13 04:50:33;;;;;;;3.38;3.08;;;19.70;99.90;;;;;;5017049;28;20228;-64
2022/07/13 04:53:00;;;;;;;6.40;3.72;;;;;;;;;;5030054;28;20259;-63
2022/07/13 04:55:28;;;;;;;3.67;3.38;;;19.50;99.90;;;;;;5008622;28;20711;-64
2022/07/13 04:57:56;;;;;;;3.65;3.20;;;19.50;99.90;;;;;;5032624;28;20307;-64
2022/07/13 05:00:24;;;;;;;4.93;3.20;;;19.90;99.90;;;;;;5025234;28;21004;-64
2022/07/13 05:02:50;;;;;;;4.68;3.47;;;19.60;99.90;;;;;;5046649;28;20227;-64
2022/07/13 05:05:17;;;;;;;4.05;3.63;;;19.70;99.90;;;;;;5039475;28;20201;-65
2022/07/13 05:07:45;;;;;;;4.07;3.42;;;19.70;99.90;;;;;;5048180;28;20878;-64
2022/07/13 05:10:12;;;;;;;4.25;3.90;;;19.90;99.90;;;;;;5003328;28;20233;-65
2022/07/13 05:12:40;;;;;;;4.22;3.83;;;19.70;99.90;;;;;;5041934;28;20216;-65
2022/07/13 05:15:08;;;;;;;4.40;4.00;;;19.70;99.90;;;;;;5032902;28;20239;-64
2022/07/13 05:17:35;;;;;;;3.83;3.20;;;19.70;99.90;;;;;;5045354;28;20489;-64
2022/07/13 05:20:02;;;;;;;8.90;4.20;;;20.90;99.90;;;;;;5045978;28;20695;-65
2022/07/13 05:22:30;;;;;;;6.45;4.10;;;19.70;99.90;;;;;;5039965;28;20201;-64
2022/07/13 05:24:59;;;;;;;4.35;3.95;;;19.90;99.90;;;;;;5012254;28;20222;-66
2022/07/13 05:27:26;;;;;;;4.25;3.85;;;19.50;99.90;;;;;;5037757;28;20638;-64
2022/07/13 05:29:53;;;;;;;4.20;3.80;;;19.90;99.90;;;;;;5042737;28;20193;-64
2022/07/13 05:32:20;;;;;;;4.15;3.53;;;19.90;99.90;;;;;;5027380;28;20579;-65
2022/07/13 05:34:46;;;;;;;4.60;4.15;;;20.20;99.90;;;;;;5045982;28;20795;-65
2022/07/13 05:37:14;;;;;;;7.97;4.20;;;20.00;99.90;;;;;;5042061;28;20220;-65
2022/07/13 05:39:43;;;;;;;10.02;3.67;;;20.00;99.90;;;;;;5036316;28;20208;-65
2022/07/13 05:42:11;;;;;;;5.75;4.40;;;20.00;99.90;;;;;;5022719;28;20225;-64
2022/07/13 05:44:38;;;;;;;4.30;3.75;;;20.20;99.90;;;;;;5045622;28;20350;-65
2022/07/13 05:47:05;;;;;;;9.80;4.05;;;20.00;99.90;;;;;;5035938;28;20561;-64
2022/07/13 05:49:32;;;;;;;4.80;3.92;;;19.80;99.90;;;;;;5048754;28;20197;-66
2022/07/13 05:51:59;;;;;;;5.88;4.05;;;20.30;99.90;;;;;;5047208;28;20204;-66
2022/07/13 05:54:26;;;;;;;5.30;3.95;;;20.10;99.90;;;;;;5028294;28;20229;-64
2022/07/13 05:56:53;;;;;;;7.15;4.28;;;20.20;99.90;;;;;;5020361;28;20229;-64
2022/07/13 05:59:21;;;;;;;5.10;3.60;;;20.10;99.90;;;;;;5026661;28;20306;-65
2022/07/13 06:01:48;;;;;;;4.30;3.65;;;20.30;99.90;;;;;;5036821;28;20233;-63
2022/07/13 06:04:15;;;;;;;5.68;3.90;;;20.10;99.90;;;;;;5025948;28;20712;-63
2022/07/13 06:06:42;;;;;;;5.65;3.60;;;;;;;;;;5033664;28;20388;-64
2022/07/13 06:09:09;;;;;;;4.50;4.10;;;20.20;99.90;;;;;;5030756;28;20310;-64
2022/07/13 06:11:36;;;;;;;6.78;4.47;;;20.60;99.90;;;;;;5017951;28;20951;-64
2022/07/13 06:14:02;;;;;;;4.50;4.05;;;20.00;99.90;;;;;;5044901;28;20231;-64
2022/07/13 06:16:30;;;;;;;4.63;4.22;;;20.30;99.90;;;;;;5001803;28;20225;-64
2022/07/13 06:18:57;;;;;;;11.60;4.13;;;19.60;99.90;;;;;;5047129;28;20668;-64
2022/07/13 06:21:24;;;;;;;5.13;3.88;;;;;;;;;;5035435;28;20216;-64
2022/07/13 06:23:51;;;;;;;6.55;4.30;;;20.40;99.90;;;;;;5044796;28;20304;-63
2022/07/13 06:26:18;;;;;;;4.10;3.78;;;20.60;99.90;;;;;;5038249;28;20215;-65
2022/07/13 06:28:45;;;;;;;4.80;4.05;;;20.70;99.90;;;;;;5017188;28;20216;-65
2022/07/13 06:31:11;;;;;;;4.60;4.18;;;20.40;99.90;;;;;;5028158;28;20212;-63
2022/07/13 06:33:41;;;;;;;6.70;4.32;;;20.60;99.90;;;;;;5031912;28;20219;-64
2022/07/13 06:36:08;;;;;;;4.20;3.80;;;20.50;99.90;;;;;;5045982;28;20676;-65
2022/07/13 06:38:35;;;;;;;4.35;3.63;;;20.60;99.90;;;;;;5032278;28;20224;-64
2022/07/13 06:41:02;;;;;;;4.25;3.60;;;20.70;99.90;;;;;;5052867;28;20192;-63
2022/07/13 06:43:29;;;;;;;3.97;3.58;;;20.70;99.90;;;;;;5012056;28;20240;-65
2022/07/13 06:45:55;;;;;;;5.97;3.35;;;20.50;99.90;;;;;;5036313;28;20208;-64
2022/07/13 06:48:22;;;;;;;4.15;3.85;;;20.60;99.90;;;;;;5031143;28;20224;-65
2022/07/13 06:50:50;;;;;;;5.97;4.03;;;20.60;99.90;;;;;;5042498;28;20221;-63
2022/07/13 06:53:17;;;;;;;4.43;4.00;;;20.80;99.90;;;;;;5041880;28;20208;-63
2022/07/13 06:55:44;;;;;;;4.55;3.70;;;20.70;99.90;;;;;;5036043;28;20236;-64
2022/07/13 06:58:11;;;;;;;6.38;4.03;;;20.70;99.90;;;;;;5046327;28;20208;-65
2022/07/13 07:00:38;;;;;;;4.75;3.85;;;20.70;99.90;;;;;;5019458;28;20231;-65
2022/07/13 07:03:04;;;;;;;4.88;3.78;;;24.10;99.90;;;;;;5013713;28;20957;-64
2022/07/13 07:05:31;;;;;;;8.00;3.80;;;20.70;99.90;;;;;;5036923;28;20204;-63
2022/07/13 07:08:00;;;;;;;7.88;4.05;;;20.50;99.90;;;;;;5032437;28;20746;-64
2022/07/13 07:10:27;;;;;;;14.30;4.18;;;20.80;99.90;;;;;;5032556;28;20243;-65
2022/07/13 07:12:54;;;;;;;4.82;3.90;;;20.80;99.90;;;;;;5042886;28;20208;-65
2022/07/13 07:15:21;;;;;;;4.93;3.45;;;;;;;;;;5019373;28;20722;-65
2022/07/13 07:17:48;;;;;;;4.55;3.67;;;20.80;99.90;;;;;;5014085;28;20302;-65
2022/07/13 07:20:16;;;;;;;3.95;3.65;;;;;;;;;;5033203;28;21301;-65
2022/07/13 07:22:45;;;;;;;11.07;3.95;;;21.00;99.90;;;;;;5043262;28;20225;-65
2022/07/13 07:25:14;;;;;;;6.50;3.85;;;21.00;99.90;;;;;;5033286;28;20783;-64
2022/07/13 07:27:41;;;;;;;11.20;3.75;;;20.90;99.90;;;;;;5042535;28;20216;-64
2022/07/13 07:30:09;;;;;;;8.18;4.18;;;21.10;99.90;;;;;;5010304;28;20548;-65
2022/07/13 07:32:36;;;;;;;5.57;4.10;;;;;;;;;;5038322;28;20208;-65
2022/07/13 07:35:03;;;;;;;5.40;3.72;;;19.50;99.90;;;;;;5024057;28;20228;-65
2022/07/13 07:37:30;;;;;;;7.78;3.80;;;21.00;99.90;;;;;;5028420;28;20227;-65
2022/07/13 07:39:57;;;;;;;5.03;3.80;;;20.90;99.90;;;;;;5034709;28;20425;-65
2022/07/13 07:42:25;;;;;;;3.78;3.42;;;20.90;99.90;;;;;;5017055;28;20197;-65
2022/07/13 07:44:52;;;;;;;4.18;3.45;;;20.90;99.90;;;;;;5011402;28;20216;-65
2022/07/13 07:47:22;;;;;;;7.30;3.65;;;20.90;99.90;;;;;;5038713;28;20223;-64
2022/07/13 07:49:49;;;;;;;5.43;3.80;;;;;;;;;;5026517;28;20212;-64
2022/07/13 07:52:16;;;;;;;4.25;3.75;;;20.80;99.90;;;;;;5032213;28;20216;-65
2022/07/13 07:54:43;;;;;;;4.07;3.67;;;20.70;99.90;;;;;;5039683;28;20631;-64
2022/07/13 07:57:09;;;;;;;3.95;3.35;;;21.00;99.90;;;;;;5025112;28;20699;-64
2022/07/13 07:59:38;;;;;;;3.72;3.25;;;20.90;99.90;;;;;;5036955;28;20204;-65
2022/07/13 08:02:05;;;;;;;7.72;4.07;;;20.90;99.90;;;;;;5017497;28;20437;-64
2022/07/13 08:04:32;;;;;;;11.75;3.90;;;21.00;99.90;;;;;;5026951;28;20209;-64
2022/07/13 08:06:59;;;;;;;25.83;4.15;;;20.90;99.90;;;;;;5014982;28;21785;-63
2022/07/13 08:09:27;;;;;;;6.80;3.88;;;21.00;99.90;;;;;;5039586;28;20238;-64
2022/07/13 08:11:53;;;;;;;5.45;3.83;;;21.20;99.90;;;;;;5024131;28;20208;-64
2022/07/13 08:14:21;;;;;;;5.85;4.18;;;21.00;99.90;;;;;;5044535;28;20197;-64
2022/07/13 08:16:49;;;;;;;5.85;4.00;;;21.20;99.90;;;;;;5014845;28;20722;-64
2022/07/13 08:19:16;;;;;;;4.15;3.75;;;20.90;99.90;;;;;;5030421;28;20213;-64
2022/07/13 08:21:42;;;;;;;3.90;3.50;;;21.10;99.90;;;;;;5039530;28;20212;-64
2022/07/13 08:24:09;;;;;;;5.43;3.53;;;21.10;99.90;;;;;;5032572;28;20202;-64
2022/07/13 08:26:36;;;;;;;4.95;3.80;;;21.20;99.90;;;;;;5046905;28;20213;-64
2022/07/13 08:29:03;;;;;;;5.30;3.88;;;21.20;99.90;;;;;;5028786;28;20503;-64
2022/07/13 08:31:29;;;;;;;6.30;3.65;;;21.40;99.90;;;;;;5018104;28;20212;-65
2022/07/13 08:39:26;;;;;;;4.00;3.60;;;21.70;99.90;;;;;;5026990;28;20300;-64
2022/07/13 08:41:56;;;;;;;3.95;3.53;;;21.60;99.90;;;;;;5002419;28;20228;-64
2022/07/13 08:44:24;;;;;;;5.03;3.75;;;21.70;99.90;;;;;;5018683;28;20220;-64
2022/07/13 08:46:51;;;;;;;4.13;3.53;;;22.00;99.90;;;;;;5008841;28;20228;-65
2022/07/13 08:49:20;;;;;;;5.57;3.70;;;21.90;99.90;;;;;;5000700;28;20228;-63
2022/07/13 08:51:48;;;;;;;7.25;4.28;;;21.70;99.90;;;;;;5034375;28;20224;-62
2022/07/13 08:54:15;;;;;;;6.07;3.65;;;;;;;;;;5024462;28;20225;-63
2022/07/13 08:56:42;;;;;;;7.60;3.90;;;21.90;99.90;;;;;;5038425;28;20225;-63
2022/07/13 08:59:09;;;;;;;6.40;4.22;;;;;;;;;;5023770;28;20201;-64
2022/07/13 09:01:37;;;;;;;4.57;4.00;;;22.00;99.90;;;;;;5031290;28;20433;-63
2022/07/13 09:04:09;;;;;;;9.27;4.75;;;22.10;99.90;;;;;;4999857;28;20216;-63
2022/07/13 09:06:45;;;;;;;5.10;4.60;;;22.10;99.90;;;;;;5047748;28;20349;-63
2022/07/13 09:09:33;;;;;;;6.55;4.00;;;22.10;99.90;;;;;;5030048;28;20238;-63
2022/07/13 09:12:18;;;;;;;7.13;4.38;;;22.00;99.90;;;;;;5043750;28;20200;-63
2022/07/13 09:14:52;;;;;;;5.45;3.88;;;22.10;99.90;;;;;;5034663;28;20367;-63
2022/07/13 09:17:29;;;;;;;6.97;4.32;;;22.20;99.90;;;;;;5030516;28;20244;-63
2022/07/13 09:19:56;;;;;;;6.93;4.90;;;22.30;99.90;;;;;;5021536;28;20714;-63
2022/07/13 09:22:24;;;;;;;6.07;5.25;;;22.40;99.90;;;;;;5034163;28;20626;-63
2022/07/13 09:24:53;;;;;;;6.40;4.68;;;22.60;99.90;;;;;;5046554;28;20200;-63
2022/07/13 09:27:21;;;;;;;5.32;4.55;;;22.60;99.90;;;;;;5031856;28;20287;-63
2022/07/13 09:29:47;;;;;;;5.00;4.05;;;22.70;99.90;;;;;;5035001;28;20679;-63
2022/07/13 09:32:15;;;;;;;10.57;3.80;;;22.70;99.90;;;;;;5032606;28;20207;-63
2022/07/13 09:34:50;;;;;;;4.85;3.78;;;21.70;99.90;;;;;;5016662;28;20597;-63
2022/07/13 09:37:18;;;;;;;6.13;4.10;;;23.60;99.90;;;;;;5046338;28;20656;-64
2022/07/13 09:40:07;;;;;;;4.88;3.88;;;23.40;99.90;;;;;;5031814;28;20363;-63
2022/07/13 09:42:36;;;;;;;8.00;4.30;;;23.60;99.90;;;;;;5027549;28;20234;-63
2022/07/13 09:47:52;;;;;;;4.47;3.75;;;23.70;99.90;;;;;;5025860;28;20219;-63
2022/07/13 09:50:20;;;;;;;4.35;3.58;;;23.80;99.90;;;;;;5021852;28;20215;-63
2022/07/13 09:52:47;;;;;;;5.88;3.70;;;23.90;99.90;;;;;;5042369;28;20221;-63
2022/07/13 09:55:20;;;;;;;6.93;4.22;;;24.00;99.90;;;;;;5043830;28;20233;-63
2022/07/13 09:57:49;;;;;;;8.38;3.78;;;21.70;99.90;;;;;;5035947;28;20204;-63
2022/07/13 10:00:20;;;;;;;4.22;3.83;;;24.30;99.90;;;;;;5033125;28;20335;-63
2022/07/13 10:02:48;;;;;;;4.82;4.22;;;24.10;99.90;;;;;;5033283;28;20312;-62
2022/07/13 10:05:16;;;;;;;4.30;3.53;;;24.20;99.90;;;;;;5020340;28;21383;-63
2022/07/13 10:07:44;;;;;;;6.93;4.00;;;;;;;;;;5046793;28;20318;-63
2022/07/13 10:10:12;;;;;;;4.03;3.70;;;24.40;99.90;;;;;;5044410;28;20232;-63
2022/07/13 10:12:41;;;;;;;4.30;3.65;;;24.50;99.90;;;;;;5035465;28;20208;-63
2022/07/13 10:15:09;;;;;;;3.88;3.38;;;24.80;99.90;;;;;;5031057;28;23269;-63
2022/07/13 10:17:37;;;;;;;3.70;3.22;;;24.60;99.90;;;;;;5043402;28;20612;-63
2022/07/13 10:20:09;;;;;;;6.28;3.53;;;24.70;99.90;;;;;;4987764;28;20718;-63
2022/07/13 10:22:41;;;;;;;7.88;3.97;;;24.70;99.90;;;;;;5040922;28;20204;-63
2022/07/13 10:25:08;;;;;;;4.70;3.67;;;25.20;99.90;;;;;;5028762;28;23121;-63
2022/07/13 10:27:37;;;;;;;5.60;4.15;;;24.70;99.90;;;;;;5031096;28;20295;-63
2022/07/13 10:30:07;;;;;;;6.72;3.50;;;24.80;99.90;;;;;;5048855;22;20714;-63
2022/07/13 10:32:36;;;;;;;4.53;3.70;;;24.90;99.90;;;;;;5035565;28;20607;-63
2022/07/13 10:35:05;;;;;;;4.70;3.50;;;24.10;99.90;;;;;;5005998;28;20231;-64
2022/07/13 10:38:05;;;;;;;6.20;3.67;;;24.90;99.90;;;;;;5047568;28;20197;-63
2022/07/13 10:40:33;;;;;;;6.13;4.55;;;24.90;99.90;;;;;;5018983;28;20319;-63
2022/07/13 10:43:13;;;;;;;7.00;4.00;;;24.90;99.90;;;;;;4993540;28;20217;-63
2022/07/13 10:45:43;;;;;;;6.80;4.10;;;24.90;99.90;;;;;;5020398;28;20202;-63
2022/07/13 10:48:41;;;;;;;4.95;3.33;;;25.00;99.90;;;;;;5001511;28;20193;-63
2022/07/13 10:51:18;;;;;;;5.03;3.08;;;26.20;99.90;;;;;;4980155;28;20225;-63
2022/07/13 10:54:05;;;;;;;5.35;3.45;;;25.10;99.90;;;;;;5020009;28;20299;-63
2022/07/13 10:56:32;;;;;;;5.70;3.85;;;;;;;;;;5011618;28;20229;-63
2022/07/13 10:58:58;;;;;;;8.95;3.75;;;25.30;99.90;;;;;;5006325;28;20468;-62
2022/07/13 11:01:47;;;;;;;4.22;3.67;;;25.40;99.90;;;;;;5002292;28;20225;-64
2022/07/13 11:04:16;;;;;;;3.80;3.35;;;25.40;99.90;;;;;;5021279;28;20314;-64
2022/07/13 11:06:43;;;;;;;3.70;3.40;;;25.40;99.90;;;;;;4996593;28;20213;-64
2022/07/13 11:09:20;;;;;;;4.10;3.60;;;25.40;99.90;;;;;;5025124;28;20197;-64
2022/07/13 11:11:48;;;;;;;3.60;3.30;;;25.40;99.90;;;;;;5011704;28;20204;-63
2022/07/13 11:14:47;;;;;;;7.28;3.40;;;25.40;99.90;;;;;;5011736;28;20217;-64
2022/07/13 11:17:16;;;;;;;3.20;2.90;;;25.40;99.90;;;;;;5013480;28;20229;-64
2022/07/13 11:19:50;;;;;;;4.38;3.03;;;;;;;;;;5020344;28;20711;-63
2022/07/13 11:22:17;;;;;;;3.58;2.92;;;25.50;99.90;;;;;;5001741;28;20368;-63
2022/07/13 11:27:41;;;;;;;5.90;2.22;;;25.30;99.90;;;;;;5014291;28;20965;-63
2022/07/13 11:30:10;;;;;;;2.40;2.20;;;25.20;99.90;;;;;;5011701;28;20229;-63
2022/07/13 11:32:41;;;;;;;5.55;2.63;;;25.20;99.90;;;;;;5013284;28;20213;-64
2022/07/13 11:35:08;;;;;;;4.90;2.42;;;25.20;99.90;;;;;;5030632;28;20304;-63
2022/07/13 11:37:36;;;;;;;4.03;2.42;;;25.20;99.90;;;;;;5000498;28;20205;-64
2022/07/13 11:40:04;;;;;;;2.53;2.08;;;25.30;99.90;;;;;;5025705;28;20644;-64
2022/07/13 11:42:31;;;;;;;3.17;2.60;;;25.40;99.90;;;;;;5017363;28;20205;-64
2022/07/13 11:44:58;;;;;;;3.95;2.60;;;25.50;99.90;;;;;;5008319;28;20707;-63
2022/07/13 11:47:25;;;;;;;3.50;2.42;;;25.40;99.90;;;;;;5018704;28;20221;-63
2022/07/13 11:49:54;;;;;;;5.85;2.50;;;25.30;99.90;;;;;;5009976;28;20198;-64
2022/07/13 11:52:22;;;;;;;5.97;2.72;;;25.50;99.90;;;;;;4995506;28;20756;-63
2022/07/13 11:54:56;;;;;;;3.70;2.60;;;25.50;99.90;;;;;;5018990;28;20198;-63
2022/07/13 11:57:23;;;;;;;2.80;2.45;;;25.60;99.90;;;;;;5022731;28;20268;-63
2022/07/13 11:59:50;;;;;;;3.42;2.60;;;25.60;99.90;;;;;;5001156;28;20205;-64
2022/07/13 12:02:17;;;;;;;4.80;3.03;;;25.60;99.90;;;;;;5022493;28;20208;-63
2022/07/13 12:04:46;;;;;;;5.78;3.28;;;25.30;99.90;;;;;;5002500;28;20233;-64
2022/07/13 12:07:16;;;;;;;5.88;3.67;;;24.90;99.90;;;;;;5001216;28;20232;-64
2022/07/13 12:09:50;;;;;;;3.45;3.15;;;25.10;99.90;;;;;;5024811;28;20213;-63
2022/07/13 12:12:18;;;;;;;3.38;3.08;;;25.10;99.90;;;;;;5005092;28;20220;-64
2022/07/13 12:14:45;;;;;;;6.25;5.40;;;24.70;99.90;;;;;;5018739;28;20204;-63
2022/07/13 12:17:12;;;;;;;6.13;5.50;;;24.00;99.90;;;;;;5028834;28;20886;-63
2022/07/13 12:19:39;;;;;;;9.45;6.47;;;25.00;99.90;;;;;;5007279;28;20216;-63
2022/07/13 12:22:07;;;;;;;10.93;7.38;;;25.00;99.90;;;;;;5006627;28;20277;-63
2022/07/13 12:24:35;;;;;;;10.77;8.20;;;24.60;99.90;;;;;;4995269;28;20306;-63
2022/07/13 12:27:03;;;;;;;7.32;6.22;;;24.90;99.90;;;;;;5005294;28;20225;-64
2022/07/13 12:29:32;;;;;;;12.63;6.72;;;24.80;99.90;;;;;;5018538;28;20665;-63
2022/07/13 12:31:58;;;;;;;5.43;4.75;;;24.70;99.90;;;;;;5005089;28;20226;-63
2022/07/13 12:34:25;;;;;;;6.22;4.78;;;24.80;99.90;;;;;;5022039;28;20217;-63
2022/07/13 12:36:52;;;;;;;5.00;3.90;;;24.90;99.90;;;;;;5007335;28;20602;-63
2022/07/13 12:39:20;;;;;;;6.65;3.72;;;24.70;99.90;;;;;;5002512;28;20364;-63
2022/07/13 12:41:56;;;;;;;5.57;3.22;;;24.90;99.90;;;;;;5010445;28;20196;-63
2022/07/13 12:44:28;;;;;;;3.53;2.72;;;24.90;99.90;;;;;;5027146;28;20194;-63
2022/07/13 12:46:58;;;;;;;4.45;2.70;;;23.60;99.90;;;;;;5002254;28;20209;-63
2022/07/13 12:49:29;;;;;;;6.88;2.78;;;25.00;99.90;;;;;;5027178;28;20198;-63
2022/07/13 12:52:02;;;;;;;2.67;2.47;;;23.90;99.90;;;;;;5014113;28;20583;-63
2022/07/13 12:54:46;;;;;;;2.95;2.65;;;25.00;99.90;;;;;;4998380;28;20675;-63
2022/07/13 12:57:16;;;;;;;3.65;2.75;;;25.10;99.90;;;;;;5020706;28;20233;-63
2022/07/13 12:59:58;;;;;;;3.97;2.40;;;25.10;99.90;;;;;;5007092;28;20234;-63
2022/07/13 13:02:25;;;;;;;3.22;2.80;;;25.10;99.90;;;;;;5025558;28;20283;-63
2022/07/13 13:04:51;;;;;;;3.45;2.05;;;25.20;99.90;;;;;;5009565;28;20971;-63
2022/07/13 13:07:18;;;;;;;3.05;1.60;;;25.00;99.90;;;;;;5015611;28;20232;-63
2022/07/13 13:09:45;;;;;;;2.97;2.03;;;25.00;99.90;;;;;;4996248;28;20220;-63